This is the latest recevied weather packets stored in our database for station/object DL4YM-13. If no packets are shown the sender has not sent any weather packets the latest 10 day(s).
| Time | Temp. | Humidity | Pressure | Rain* | Wind** | Luminosity | Snow |
|---|---|---|---|---|---|---|---|
| 1777925727 | 13.33° C | 98% | 997 hPa | - | - | - | - |
| 1777925127 | 12.78° C | 95% | 997.3 hPa | - | - | - | - |
| 1777924527 | 12.78° C | 95% | 997.3 hPa | - | - | - | - |
| 1777923926 | 12.78° C | 95% | 997.3 hPa | - | - | - | - |
| 1777923327 | 12.78° C | 95% | 997.3 hPa | - | - | - | - |
| 1777922742 | 13.33° C | 94% | 997.2 hPa | - | - | - | - |
| 1777922126 | 13.33° C | 94% | 997.2 hPa | - | - | - | - |
| 1777921527 | 13.33° C | 92% | 997.2 hPa | - | - | - | - |
| 1777920926 | 13.33° C | 90% | 997.3 hPa | - | - | - | - |
| 1777920326 | 13.89° C | 88% | 997.1 hPa | - | - | - | - |
| 1777919727 | 14.44° C | 86% | 997.1 hPa | - | - | - | - |
| 1777919127 | 14.44° C | 86% | 997.1 hPa | - | - | - | - |
| 1777918527 | 15.56° C | 81% | 997 hPa | - | - | - | - |
| 1777917927 | 15.56° C | 81% | 997 hPa | - | - | - | - |
| 1777917327 | 15.56° C | 81% | 997 hPa | - | - | - | - |
| 1777916727 | 16.11° C | 79% | 997 hPa | - | - | - | - |
| 1777916127 | 16.11° C | 78% | 996.9 hPa | - | - | - | - |
| 1777915526 | 16.11° C | 77% | 996.8 hPa | - | - | - | - |
| 1777914926 | 16.67° C | 73% | 996.7 hPa | - | - | - | - |
| 1777914326 | 17.22° C | 67% | 996.7 hPa | - | - | - | - |
| 1777913727 | 17.22° C | 67% | 996.7 hPa | - | - | - | - |
| 1777913127 | 17.22° C | 66% | 996.6 hPa | - | - | - | - |
| 1777912527 | 17.22° C | 66% | 996.6 hPa | - | - | - | - |
| 1777911927 | 17.78° C | 65% | 996.5 hPa | - | - | - | - |
| 1777911327 | 18.33° C | 63% | 996.4 hPa | - | - | - | - |
* Rain since midnight (hover to see other rain measurements)
** Current wind speed in m/s (hover to see current wind gust speed)